Time;durP1;ratioP1;P1;durP2;ratioP2;P2;SDS_P1;SDS_P2;PMS_P1;PMS_P2;Temp;Humidity;BMP_temperature;BMP_pressure;BME280_temperature;BME280_humidity;BME280_pressure;Samples;Min_cycle;Max_cycle;Signal;HPM_P1;HPM_P2
2023/08/29 00:01:40;;;;;;;0.97;0.97;;;12.10;99.90;;;;;;5014394;28;20720;-56
2023/08/29 00:04:08;;;;;;;1.00;1.00;;;12.10;99.90;;;;;;5012869;28;20202;-56
2023/08/29 00:06:36;;;;;;;0.70;0.70;;;12.10;99.90;;;;;;5013368;28;20226;-56
2023/08/29 00:09:03;;;;;;;1.00;1.00;;;12.10;99.90;;;;;;5013385;28;20249;-56
2023/08/29 00:11:30;;;;;;;0.80;0.80;;;12.10;99.90;;;;;;5014155;28;20596;-58
2023/08/29 00:13:57;;;;;;;1.93;1.40;;;12.10;99.90;;;;;;5013763;28;20217;-56
2023/08/29 00:16:24;;;;;;;1.20;1.20;;;12.10;99.90;;;;;;5013302;28;20203;-56
2023/08/29 00:18:51;;;;;;;0.87;0.87;;;12.10;99.90;;;;;;5012418;28;20199;-56
2023/08/29 00:21:18;;;;;;;2.00;0.90;;;12.20;99.90;;;;;;5014263;28;20302;-56
2023/08/29 00:23:48;;;;;;;0.73;0.73;;;12.20;99.90;;;;;;5013033;28;20257;-56
2023/08/29 00:26:15;;;;;;;1.00;1.00;;;12.20;99.90;;;;;;5014068;28;20256;-56
2023/08/29 00:28:41;;;;;;;0.70;0.70;;;12.20;99.90;;;;;;5012010;28;20620;-56
2023/08/29 00:31:08;;;;;;;0.97;0.97;;;12.10;99.90;;;;;;5006019;28;20775;-56
2023/08/29 00:33:35;;;;;;;1.27;1.27;;;12.10;99.90;;;;;;5010009;28;20296;-56
2023/08/29 00:36:03;;;;;;;0.90;0.90;;;12.00;99.90;;;;;;5014005;28;20246;-56
2023/08/29 00:38:29;;;;;;;0.80;0.80;;;11.90;99.90;;;;;;5013972;28;20283;-56
2023/08/29 00:40:59;;;;;;;1.70;1.07;;;12.10;99.90;;;;;;5012246;28;20233;-56
2023/08/29 00:43:26;;;;;;;1.07;1.07;;;12.20;99.90;;;;;;5013090;28;20549;-56
2023/08/29 00:45:53;;;;;;;0.97;0.97;;;12.30;99.90;;;;;;5013725;28;20223;-56
2023/08/29 00:48:20;;;;;;;0.93;0.93;;;12.30;99.90;;;;;;5012692;28;20288;-56
2023/08/29 00:50:48;;;;;;;1.17;1.00;;;12.30;99.90;;;;;;5013708;28;20198;-56
2023/08/29 00:53:15;;;;;;;0.80;0.80;;;12.30;99.90;;;;;;5012162;28;20201;-56
2023/08/29 00:55:43;;;;;;;0.80;0.80;;;12.30;99.90;;;;;;5013843;28;20257;-56
2023/08/29 00:58:14;;;;;;;0.80;0.80;;;12.20;99.90;;;;;;5012911;28;20556;-56
2023/08/29 01:00:43;;;;;;;1.80;1.13;;;12.20;99.90;;;;;;5013648;28;20206;-56
2023/08/29 01:03:10;;;;;;;0.73;0.63;;;12.10;99.90;;;;;;5012824;28;20207;-56
2023/08/29 01:05:37;;;;;;;1.17;1.10;;;12.10;99.90;;;;;;5011286;28;20265;-56
2023/08/29 01:08:04;;;;;;;0.90;0.90;;;12.10;99.90;;;;;;5012343;28;20209;-55
2023/08/29 01:10:38;;;;;;;1.03;1.03;;;12.10;99.90;;;;;;5013119;28;20205;-56
2023/08/29 01:13:16;;;;;;;0.93;0.90;;;12.10;99.90;;;;;;5012874;28;20217;-56
2023/08/29 01:15:49;;;;;;;1.27;1.27;;;12.20;99.90;;;;;;5013287;28;20295;-56
2023/08/29 01:18:19;;;;;;;0.90;0.90;;;12.10;99.90;;;;;;5011695;28;20205;-56
2023/08/29 01:20:50;;;;;;;0.80;0.80;;;12.00;99.90;;;;;;5012987;28;20210;-56
2023/08/29 01:23:24;;;;;;;0.80;0.73;;;12.00;99.90;;;;;;5013012;28;20194;-55
2023/08/29 01:25:56;;;;;;;0.70;0.70;;;11.90;99.90;;;;;;5012680;28;20268;-56
2023/08/29 01:28:25;;;;;;;0.87;0.87;;;11.90;99.90;;;;;;5011098;28;20218;-56
2023/08/29 01:30:52;;;;;;;1.20;1.10;;;11.90;99.90;;;;;;5012691;28;20278;-56
2023/08/29 01:33:20;;;;;;;0.77;0.77;;;11.90;99.90;;;;;;5002969;28;20203;-56
2023/08/29 01:35:48;;;;;;;1.00;1.00;;;12.00;99.90;;;;;;5012985;28;20200;-56
2023/08/29 01:38:17;;;;;;;1.10;1.03;;;12.00;99.90;;;;;;5012148;28;20585;-56
2023/08/29 01:40:44;;;;;;;0.97;0.97;;;11.90;99.90;;;;;;5008532;28;20210;-55
2023/08/29 01:43:14;;;;;;;1.13;1.07;;;11.90;99.90;;;;;;5011976;28;20202;-56
2023/08/29 01:45:43;;;;;;;1.07;0.90;;;11.90;99.90;;;;;;5011619;28;20226;-56
2023/08/29 01:48:14;;;;;;;1.03;0.93;;;11.90;99.90;;;;;;5003820;28;20674;-56
2023/08/29 01:50:42;;;;;;;0.80;0.80;;;11.90;99.90;;;;;;5012090;28;20664;-56
2023/08/29 01:53:09;;;;;;;0.90;0.90;;;11.90;99.90;;;;;;5010503;28;20317;-55
2023/08/29 01:55:38;;;;;;;1.03;0.93;;;12.00;99.90;;;;;;5011529;28;20251;-55
2023/08/29 01:58:07;;;;;;;0.93;0.93;;;12.10;99.90;;;;;;5012336;28;20217;-56
2023/08/29 02:00:34;;;;;;;1.00;1.00;;;12.10;99.90;;;;;;5012539;28;20275;-56
2023/08/29 02:03:03;;;;;;;1.07;1.07;;;12.10;99.90;;;;;;5002533;28;20253;-56
2023/08/29 02:05:30;;;;;;;0.80;0.80;;;12.10;99.90;;;;;;5010674;28;20697;-56
2023/08/29 02:07:57;;;;;;;1.57;0.80;;;12.10;99.90;;;;;;5012245;28;20622;-56
2023/08/29 02:10:24;;;;;;;1.00;1.00;;;12.10;99.90;;;;;;5012291;28;20214;-56
2023/08/29 02:12:51;;;;;;;1.50;1.40;;;12.10;99.90;;;;;;5011197;28;20234;-56
2023/08/29 02:15:18;;;;;;;1.33;1.33;;;12.10;99.90;;;;;;5010828;28;20193;-56
2023/08/29 02:17:46;;;;;;;1.67;1.57;;;12.10;99.90;;;;;;5008356;28;20203;-56
2023/08/29 02:20:14;;;;;;;2.63;1.10;;;12.10;99.90;;;;;;5007880;28;20202;-54
2023/08/29 02:22:41;;;;;;;2.10;1.00;;;12.10;99.90;;;;;;5011128;28;20707;-54
2023/08/29 02:25:09;;;;;;;1.87;0.93;;;12.10;99.90;;;;;;5011836;28;20691;-54
2023/08/29 02:27:36;;;;;;;1.00;1.00;;;12.10;99.90;;;;;;5010974;28;20211;-54
2023/08/29 02:30:04;;;;;;;1.43;1.43;;;12.00;99.90;;;;;;5010723;28;20209;-54
2023/08/29 02:32:34;;;;;;;1.10;1.10;;;12.00;99.90;;;;;;5010980;28;20626;-54
2023/08/29 02:35:01;;;;;;;1.33;1.30;;;12.00;99.90;;;;;;5010823;28;20203;-54
2023/08/29 02:37:29;;;;;;;1.30;1.20;;;12.00;99.90;;;;;;5011696;28;20669;-54
2023/08/29 02:39:56;;;;;;;1.30;1.30;;;12.00;99.90;;;;;;5011766;28;20199;-54
2023/08/29 02:42:23;;;;;;;1.38;1.27;;;12.00;99.90;;;;;;5008527;28;20505;-55
2023/08/29 02:44:50;;;;;;;1.60;1.50;;;12.00;99.90;;;;;;5011354;28;20206;-58
2023/08/29 02:47:17;;;;;;;1.80;1.70;;;12.00;99.90;;;;;;5011512;28;20210;-59
2023/08/29 02:49:44;;;;;;;1.73;1.63;;;12.00;99.90;;;;;;5011415;28;20253;-59
2023/08/29 02:52:11;;;;;;;1.40;1.30;;;12.00;99.90;;;;;;5006838;28;20791;-59
2023/08/29 02:54:39;;;;;;;1.20;1.20;;;12.10;99.90;;;;;;5011099;28;20203;-56
2023/08/29 02:57:06;;;;;;;1.60;1.50;;;12.10;99.90;;;;;;5010340;28;20193;-54
2023/08/29 02:59:33;;;;;;;1.47;1.40;;;12.10;99.90;;;;;;5010010;28;20209;-54
2023/08/29 03:02:02;;;;;;;1.37;1.37;;;12.00;99.90;;;;;;5009761;28;20230;-54
2023/08/29 03:04:30;;;;;;;1.57;1.47;;;12.00;99.90;;;;;;5007824;28;20213;-55
2023/08/29 03:06:57;;;;;;;1.60;1.60;;;12.00;99.90;;;;;;5009864;28;20588;-54
2023/08/29 03:09:24;;;;;;;1.23;1.23;;;12.00;99.90;;;;;;5009803;28;20269;-54
2023/08/29 03:11:52;;;;;;;1.10;1.10;;;12.00;99.90;;;;;;4993029;28;20258;-54
2023/08/29 03:14:19;;;;;;;1.43;1.43;;;11.90;99.90;;;;;;4999712;28;20238;-54
2023/08/29 03:16:46;;;;;;;1.50;1.50;;;11.90;99.90;;;;;;5011419;28;20268;-54
2023/08/29 03:19:13;;;;;;;1.73;1.37;;;11.90;99.90;;;;;;5010252;28;20631;-53
2023/08/29 03:21:40;;;;;;;1.50;1.50;;;11.90;99.90;;;;;;5010476;28;20223;-54
2023/08/29 03:24:08;;;;;;;1.20;1.20;;;12.00;99.90;;;;;;5009972;28;20330;-54
2023/08/29 03:26:35;;;;;;;1.70;1.60;;;12.00;99.90;;;;;;5009270;28;20615;-54
2023/08/29 03:29:03;;;;;;;1.70;1.63;;;12.00;99.90;;;;;;5010972;28;20657;-54
2023/08/29 03:31:31;;;;;;;3.10;3.00;;;12.00;99.90;;;;;;5010822;28;20685;-55
2023/08/29 03:33:58;;;;;;;1.97;1.73;;;11.90;99.90;;;;;;5010466;28;20206;-54
2023/08/29 03:36:25;;;;;;;1.83;1.83;;;12.00;99.90;;;;;;5009214;28;20233;-54
2023/08/29 03:38:52;;;;;;;2.97;2.77;;;12.00;99.90;;;;;;5011075;28;20285;-54
2023/08/29 03:41:19;;;;;;;2.33;2.07;;;12.00;99.90;;;;;;5010944;28;20281;-54
2023/08/29 03:43:46;;;;;;;1.90;1.90;;;12.00;99.90;;;;;;5010495;28;20202;-55
2023/08/29 03:46:14;;;;;;;1.97;1.90;;;12.00;99.90;;;;;;5010951;28;20265;-54
2023/08/29 03:48:41;;;;;;;2.40;2.27;;;12.00;99.90;;;;;;5011111;28;20630;-54
2023/08/29 03:51:08;;;;;;;4.20;1.93;;;11.90;99.90;;;;;;5010196;28;20250;-54
2023/08/29 03:53:36;;;;;;;2.10;2.03;;;12.00;99.90;;;;;;5001176;28;20210;-54
2023/08/29 03:56:04;;;;;;;2.77;2.67;;;12.00;99.90;;;;;;5010717;28;20202;-53
2023/08/29 03:58:31;;;;;;;3.10;2.97;;;12.00;99.90;;;;;;5010890;28;20210;-54
2023/08/29 04:00:59;;;;;;;2.80;2.70;;;11.90;99.90;;;;;;5010837;28;20224;-54
2023/08/29 04:03:28;;;;;;;2.90;2.80;;;11.90;99.90;;;;;;5010270;28;20222;-54
2023/08/29 04:05:55;;;;;;;2.57;2.47;;;11.90;99.90;;;;;;5010956;28;20345;-54
2023/08/29 04:08:22;;;;;;;2.93;2.83;;;11.90;99.90;;;;;;5009851;28;20204;-54
2023/08/29 04:10:49;;;;;;;2.50;2.40;;;11.90;99.90;;;;;;5010567;28;20229;-54
2023/08/29 04:13:17;;;;;;;3.10;3.00;;;11.90;99.90;;;;;;5010065;28;20256;-54
2023/08/29 04:15:44;;;;;;;3.40;3.07;;;11.90;99.90;;;;;;5008351;28;20207;-55
2023/08/29 04:18:13;;;;;;;3.13;2.93;;;11.90;99.90;;;;;;5014497;28;20254;-54
2023/08/29 04:20:43;;;;;;;2.70;2.60;;;12.00;99.90;;;;;;5014516;28;20320;-53
2023/08/29 04:23:13;;;;;;;2.43;2.33;;;12.00;99.90;;;;;;5013771;28;20281;-54
2023/08/29 04:25:40;;;;;;;1.90;1.80;;;11.90;99.90;;;;;;5012639;28;20225;-54
2023/08/29 04:28:07;;;;;;;2.17;2.07;;;11.90;99.90;;;;;;5014278;28;20205;-57
2023/08/29 04:30:35;;;;;;;2.70;2.60;;;11.90;99.90;;;;;;5013046;28;20214;-53
2023/08/29 04:33:02;;;;;;;3.00;2.80;;;11.90;99.90;;;;;;5013429;28;20868;-54
2023/08/29 04:35:29;;;;;;;3.13;2.70;;;11.90;99.90;;;;;;5014228;28;20305;-54
2023/08/29 04:37:58;;;;;;;1.60;1.37;;;11.90;99.90;;;;;;5014092;28;20677;-55
2023/08/29 04:40:25;;;;;;;1.67;1.67;;;11.90;99.90;;;;;;5013808;28;20260;-54
2023/08/29 04:42:53;;;;;;;1.20;1.20;;;11.90;99.90;;;;;;5013170;28;20336;-54
2023/08/29 04:45:20;;;;;;;1.20;1.20;;;11.90;99.90;;;;;;5013158;28;20206;-54
2023/08/29 04:47:47;;;;;;;0.90;0.80;;;11.90;99.90;;;;;;5013991;28;20203;-54
2023/08/29 04:50:15;;;;;;;0.60;0.60;;;11.80;99.90;;;;;;5014038;28;20207;-54
2023/08/29 04:52:43;;;;;;;0.87;0.87;;;11.80;99.90;;;;;;5012928;28;20227;-54
2023/08/29 04:55:11;;;;;;;2.10;1.47;;;11.80;99.90;;;;;;5013527;28;20279;-54
2023/08/29 04:57:38;;;;;;;0.83;0.83;;;11.80;99.90;;;;;;5013357;28;20663;-54
2023/08/29 05:00:09;;;;;;;0.70;0.70;;;11.80;99.90;;;;;;5009759;28;20252;-54
2023/08/29 05:02:36;;;;;;;1.00;1.00;;;11.80;99.90;;;;;;5004451;28;20223;-54
2023/08/29 05:05:03;;;;;;;0.70;0.70;;;11.90;99.90;;;;;;5007607;28;20252;-54
2023/08/29 05:07:30;;;;;;;1.33;0.87;;;11.90;99.90;;;;;;5004464;28;20337;-54
2023/08/29 05:09:57;;;;;;;2.33;0.80;;;11.80;99.90;;;;;;5004558;28;20234;-54
2023/08/29 05:12:26;;;;;;;1.23;0.40;;;11.80;99.90;;;;;;5003466;28;20270;-54
2023/08/29 05:14:54;;;;;;;0.97;0.70;;;11.80;99.90;;;;;;5013522;28;20261;-54
2023/08/29 05:17:21;;;;;;;0.63;0.60;;;11.70;99.90;;;;;;5012401;28;20788;-54
2023/08/29 05:19:49;;;;;;;0.67;0.47;;;11.70;99.90;;;;;;5011208;28;20204;-55
2023/08/29 05:22:16;;;;;;;0.83;0.83;;;11.70;99.90;;;;;;5008674;28;20307;-54
2023/08/29 05:24:43;;;;;;;0.70;0.70;;;11.70;99.90;;;;;;5011042;28;20203;-54
2023/08/29 05:27:10;;;;;;;0.70;0.70;;;11.70;99.90;;;;;;5011841;28;20276;-55
2023/08/29 05:29:39;;;;;;;0.60;0.60;;;11.70;99.90;;;;;;5011751;28;20213;-54
2023/08/29 05:32:07;;;;;;;0.47;0.40;;;11.70;99.90;;;;;;5012134;28;20776;-55
2023/08/29 05:34:34;;;;;;;0.40;0.40;;;11.70;99.90;;;;;;5010878;28;20221;-55
2023/08/29 05:37:02;;;;;;;2.20;0.60;;;11.70;99.90;;;;;;5004361;28;20202;-54
2023/08/29 05:39:29;;;;;;;0.83;0.83;;;11.70;99.90;;;;;;5010908;28;20206;-54
2023/08/29 05:41:57;;;;;;;1.07;0.97;;;11.70;99.90;;;;;;5009584;28;20617;-54
2023/08/29 05:44:24;;;;;;;0.60;0.60;;;11.70;99.90;;;;;;5011813;28;20196;-54
2023/08/29 05:46:52;;;;;;;0.83;0.83;;;11.80;99.90;;;;;;5005162;28;20221;-54
2023/08/29 05:49:22;;;;;;;0.90;0.90;;;11.90;99.90;;;;;;5010286;28;20221;-54
2023/08/29 05:51:49;;;;;;;1.03;1.03;;;11.90;99.90;;;;;;5009968;28;20234;-54
2023/08/29 05:54:17;;;;;;;1.67;1.37;;;11.90;99.90;;;;;;5011280;28;20289;-55
2023/08/29 05:56:44;;;;;;;0.80;0.80;;;11.90;99.90;;;;;;5012539;28;20205;-54
2023/08/29 05:59:11;;;;;;;1.10;0.97;;;11.90;99.90;;;;;;5012411;28;20588;-54
2023/08/29 06:01:38;;;;;;;1.17;0.97;;;11.90;99.90;;;;;;5012099;28;20589;-54
2023/08/29 06:04:07;;;;;;;1.37;1.37;;;11.90;99.90;;;;;;5010549;28;20202;-54
2023/08/29 06:06:40;;;;;;;1.60;1.60;;;11.90;99.90;;;;;;5010232;28;20229;-54
2023/08/29 06:09:08;;;;;;;2.90;1.73;;;11.90;99.90;;;;;;5012192;28;20294;-54
2023/08/29 06:11:35;;;;;;;2.17;1.43;;;11.90;99.90;;;;;;5012102;28;20231;-55
2023/08/29 06:14:03;;;;;;;1.30;1.30;;;12.00;99.90;;;;;;5011553;28;20211;-54
2023/08/29 06:16:30;;;;;;;0.90;0.90;;;12.10;99.90;;;;;;5012080;28;20206;-54
2023/08/29 06:18:58;;;;;;;0.90;0.90;;;12.10;99.90;;;;;;5010221;28;20227;-54
2023/08/29 06:21:26;;;;;;;0.80;0.80;;;12.10;99.90;;;;;;5012584;28;20305;-55
2023/08/29 06:23:53;;;;;;;0.90;0.90;;;12.10;99.90;;;;;;5009151;28;20220;-55
2023/08/29 06:26:20;;;;;;;1.53;1.20;;;12.20;99.90;;;;;;5018058;28;20235;-54
2023/08/29 06:28:47;;;;;;;1.30;1.20;;;12.20;99.90;;;;;;5005241;28;20205;-55
2023/08/29 06:31:14;;;;;;;2.00;1.83;;;12.20;99.90;;;;;;5011626;28;20222;-54
2023/08/29 06:33:41;;;;;;;2.97;0.90;;;12.30;99.90;;;;;;5009182;28;20238;-54
2023/08/29 06:36:08;;;;;;;1.53;0.70;;;12.30;99.90;;;;;;5011972;28;20201;-54
2023/08/29 06:38:39;;;;;;;1.00;1.00;;;12.40;99.90;;;;;;5007443;28;20276;-54
2023/08/29 06:41:06;;;;;;;1.83;0.80;;;12.50;99.90;;;;;;5010383;28;20627;-54
2023/08/29 06:43:33;;;;;;;1.10;0.90;;;12.50;99.90;;;;;;5008153;28;20214;-54
2023/08/29 06:45:59;;;;;;;1.30;1.20;;;12.60;99.90;;;;;;5009464;28;20260;-55
2023/08/29 06:48:27;;;;;;;0.70;0.70;;;12.70;99.90;;;;;;5010904;28;20202;-54
2023/08/29 06:50:54;;;;;;;1.40;1.30;;;12.90;99.90;;;;;;5002300;28;20234;-55
2023/08/29 06:53:22;;;;;;;1.50;1.40;;;12.90;99.90;;;;;;5008008;28;20562;-55
2023/08/29 06:55:50;;;;;;;1.23;1.20;;;12.80;99.90;;;;;;5007945;28;20206;-54
2023/08/29 06:58:17;;;;;;;1.30;1.20;;;12.80;99.90;;;;;;5005788;28;20260;-54
2023/08/29 07:00:44;;;;;;;0.70;0.70;;;12.90;99.90;;;;;;5007643;28;20268;-55
2023/08/29 07:03:11;;;;;;;0.90;0.90;;;13.00;99.90;;;;;;5006316;28;20677;-54
2023/08/29 07:05:39;;;;;;;0.97;0.97;;;13.00;99.90;;;;;;5003750;28;20214;-55
2023/08/29 07:08:06;;;;;;;0.70;0.53;;;13.10;99.90;;;;;;5005835;28;20222;-55
2023/08/29 07:10:33;;;;;;;0.90;0.90;;;13.10;99.90;;;;;;5009876;28;20207;-55
2023/08/29 07:13:03;;;;;;;0.60;0.60;;;13.10;99.90;;;;;;5009757;28;20225;-55
2023/08/29 07:15:30;;;;;;;1.47;0.90;;;13.10;99.90;;;;;;4996751;28;20219;-54
2023/08/29 07:17:58;;;;;;;0.90;0.90;;;13.10;99.90;;;;;;4991648;28;20200;-54
2023/08/29 07:20:25;;;;;;;0.60;0.60;;;13.00;99.90;;;;;;4991874;28;20199;-54
2023/08/29 07:22:53;;;;;;;1.10;1.00;;;13.00;99.90;;;;;;4995513;28;20234;-54
2023/08/29 07:25:20;;;;;;;0.73;0.73;;;12.90;99.90;;;;;;5011322;28;20239;-55
2023/08/29 07:27:47;;;;;;;0.70;0.70;;;12.80;99.90;;;;;;4996014;28;20740;-55
2023/08/29 07:30:16;;;;;;;0.90;0.90;;;12.80;99.90;;;;;;5007647;28;20348;-55
2023/08/29 07:32:44;;;;;;;1.63;1.53;;;12.90;99.90;;;;;;5010623;28;20729;-54
2023/08/29 07:35:10;;;;;;;2.20;1.00;;;12.90;99.90;;;;;;5011216;28;20206;-55
2023/08/29 07:37:38;;;;;;;0.97;0.97;;;13.00;99.90;;;;;;5002688;28;20611;-55
2023/08/29 07:40:06;;;;;;;1.43;1.43;;;13.00;99.90;;;;;;5010619;28;20767;-55
2023/08/29 07:42:33;;;;;;;1.23;1.10;;;13.00;99.90;;;;;;5010291;28;20234;-55
2023/08/29 07:45:00;;;;;;;1.40;1.30;;;12.90;99.90;;;;;;5010918;28;20316;-55
2023/08/29 07:47:28;;;;;;;1.50;1.30;;;13.00;99.90;;;;;;5009128;28;20887;-55
2023/08/29 07:49:55;;;;;;;1.53;1.53;;;13.00;99.90;;;;;;5009041;28;20280;-55
2023/08/29 07:52:22;;;;;;;0.63;0.63;;;13.00;99.90;;;;;;5013530;28;20270;-54
2023/08/29 07:54:49;;;;;;;0.77;0.77;;;13.00;99.90;;;;;;5010640;28;20265;-54
2023/08/29 07:57:16;;;;;;;0.80;0.77;;;13.10;99.90;;;;;;5014736;28;20195;-55
2023/08/29 07:59:43;;;;;;;0.70;0.70;;;13.10;99.90;;;;;;5012179;28;20664;-54
2023/08/29 08:02:10;;;;;;;1.60;1.47;;;13.10;99.90;;;;;;5011898;28;20763;-55
2023/08/29 08:04:39;;;;;;;1.20;1.20;;;13.20;99.90;;;;;;5013319;28;20210;-55
2023/08/29 08:07:06;;;;;;;1.83;1.23;;;13.20;99.90;;;;;;5014405;28;20218;-54
2023/08/29 08:09:33;;;;;;;1.20;1.20;;;13.10;99.90;;;;;;5014416;28;20265;-54
2023/08/29 08:12:02;;;;;;;1.60;1.50;;;13.20;99.90;;;;;;5014267;28;20234;-55
2023/08/29 08:14:29;;;;;;;1.20;1.10;;;13.20;99.90;;;;;;5006660;28;20217;-55
2023/08/29 08:16:55;;;;;;;1.20;1.20;;;13.20;99.90;;;;;;5010800;28;20195;-54
2023/08/29 08:19:22;;;;;;;0.70;0.70;;;13.20;99.90;;;;;;5014203;28;20304;-54
2023/08/29 08:21:51;;;;;;;1.03;0.63;;;13.30;99.90;;;;;;4995263;28;20242;-54
2023/08/29 08:24:18;;;;;;;0.73;0.73;;;13.20;99.90;;;;;;5006373;28;20696;-55
2023/08/29 08:26:46;;;;;;;1.17;0.60;;;13.20;99.90;;;;;;4994742;28;20204;-54
2023/08/29 08:29:12;;;;;;;2.20;0.67;;;13.30;99.90;;;;;;4994509;28;20644;-54
2023/08/29 08:31:39;;;;;;;1.13;1.13;;;13.30;99.90;;;;;;4997295;28;20233;-54
2023/08/29 08:34:07;;;;;;;1.50;1.40;;;13.20;99.90;;;;;;5011105;28;20194;-55
2023/08/29 08:36:34;;;;;;;1.53;1.40;;;13.20;99.90;;;;;;5013894;28;20217;-55
2023/08/29 08:39:03;;;;;;;1.20;1.20;;;13.20;99.90;;;;;;5014340;28;20206;-55
2023/08/29 08:41:32;;;;;;;1.07;1.07;;;13.20;99.90;;;;;;5013802;28;20230;-55
2023/08/29 08:44:03;;;;;;;1.30;0.97;;;13.20;99.90;;;;;;5013327;28;20207;-55
2023/08/29 08:46:31;;;;;;;1.00;0.90;;;13.20;99.90;;;;;;5012972;28;20287;-55
2023/08/29 08:48:58;;;;;;;0.80;0.60;;;13.20;99.90;;;;;;5012031;28;20648;-55
2023/08/29 08:51:29;;;;;;;0.70;0.70;;;13.30;99.90;;;;;;5011675;28;20223;-55
2023/08/29 08:53:56;;;;;;;0.93;0.70;;;13.30;99.90;;;;;;5012959;28;20199;-55
2023/08/29 08:56:25;;;;;;;0.60;0.60;;;13.40;99.90;;;;;;5012569;28;20207;-55
2023/08/29 08:58:52;;;;;;;0.67;0.67;;;13.30;99.90;;;;;;5013586;28;20665;-55
2023/08/29 09:01:19;;;;;;;1.10;1.00;;;13.30;99.90;;;;;;5011655;28;20646;-54
2023/08/29 09:03:46;;;;;;;0.70;0.70;;;13.30;99.90;;;;;;5011874;28;20302;-55
2023/08/29 09:06:15;;;;;;;0.83;0.83;;;13.40;99.90;;;;;;5011341;28;20203;-55
2023/08/29 09:08:42;;;;;;;1.90;0.70;;;13.30;99.90;;;;;;5013154;28;20858;-54
2023/08/29 09:11:10;;;;;;;0.80;0.80;;;13.50;99.90;;;;;;5013569;28;20594;-56
2023/08/29 09:13:46;;;;;;;1.23;1.10;;;13.60;99.90;;;;;;5011449;28;20260;-55
2023/08/29 09:16:13;;;;;;;0.73;0.73;;;13.70;99.90;;;;;;5012973;28;20226;-54
2023/08/29 09:18:43;;;;;;;1.13;1.00;;;13.90;99.90;;;;;;5013301;28;20196;-55
2023/08/29 09:21:16;;;;;;;0.87;0.87;;;14.00;99.90;;;;;;5002833;28;20759;-54
2023/08/29 09:23:44;;;;;;;1.43;0.47;;;14.10;99.90;;;;;;5008954;28;20211;-55
2023/08/29 09:26:12;;;;;;;0.53;0.53;;;14.10;99.90;;;;;;5013010;28;20207;-54
2023/08/29 09:28:41;;;;;;;0.70;0.70;;;13.90;99.90;;;;;;5013137;28;20280;-55
2023/08/29 09:31:09;;;;;;;0.60;0.60;;;13.90;99.90;;;;;;5012922;28;20223;-55
2023/08/29 09:33:37;;;;;;;0.90;0.90;;;13.90;99.90;;;;;;5011301;28;20203;-56
2023/08/29 09:36:05;;;;;;;0.50;0.50;;;14.00;99.90;;;;;;5004609;28;20641;-54
2023/08/29 09:38:33;;;;;;;0.53;0.53;;;13.80;99.90;;;;;;5012806;28;20254;-55
2023/08/29 09:41:00;;;;;;;0.50;0.50;;;13.80;99.90;;;;;;5028820;28;20273;-54
2023/08/29 09:43:28;;;;;;;0.40;0.40;;;13.80;99.90;;;;;;5032084;28;20206;-55
2023/08/29 09:45:59;;;;;;;0.27;0.27;;;13.80;99.90;;;;;;5018610;28;20673;-55
2023/08/29 09:48:27;;;;;;;0.30;0.30;;;13.90;99.90;;;;;;5011633;28;20218;-55
2023/08/29 09:50:56;;;;;;;1.27;0.30;;;13.90;99.90;;;;;;5012526;28;20225;-55
2023/08/29 09:53:24;;;;;;;0.90;0.40;;;13.90;99.90;;;;;;5011818;28;20242;-55
2023/08/29 09:56:00;;;;;;;0.30;0.30;;;14.00;99.90;;;;;;5012548;28;20207;-56
2023/08/29 09:58:30;;;;;;;0.33;0.33;;;13.90;99.90;;;;;;5012484;28;20199;-55
2023/08/29 10:01:00;;;;;;;0.40;0.40;;;13.90;99.90;;;;;;5005243;28;20314;-54
2023/08/29 10:03:27;;;;;;;0.30;0.20;;;13.80;99.90;;;;;;5007974;28;20195;-55
2023/08/29 10:05:57;;;;;;;0.77;0.20;;;13.80;99.90;;;;;;5003829;28;20208;-55
2023/08/29 10:08:27;;;;;;;0.90;0.90;;;13.70;99.90;;;;;;5012339;28;20231;-54
2023/08/29 10:10:56;;;;;;;1.17;0.37;;;13.70;99.90;;;;;;5012193;28;20226;-55
2023/08/29 10:13:25;;;;;;;0.40;0.40;;;13.70;99.90;;;;;;5009192;28;20580;-55
2023/08/29 10:15:53;;;;;;;0.50;0.20;;;13.60;99.90;;;;;;5011922;28;20199;-55
2023/08/29 10:18:23;;;;;;;0.27;0.27;;;13.60;99.90;;;;;;5012343;28;20199;-54
2023/08/29 10:20:50;;;;;;;0.30;0.30;;;13.70;99.90;;;;;;4999118;28;20207;-55
2023/08/29 10:23:19;;;;;;;0.50;0.50;;;13.70;99.90;;;;;;5004634;28;20277;-55
2023/08/29 10:25:47;;;;;;;1.80;0.37;;;13.70;99.90;;;;;;5011997;28;20214;-55
2023/08/29 10:28:18;;;;;;;0.30;0.30;;;13.70;99.90;;;;;;5011844;28;20273;-55
2023/08/29 10:30:49;;;;;;;0.60;0.27;;;13.70;99.90;;;;;;5010263;28;20631;-55
2023/08/29 10:33:17;;;;;;;0.30;0.30;;;13.50;99.90;;;;;;5011339;28;20744;-55
2023/08/29 10:35:48;;;;;;;0.40;0.40;;;13.40;99.90;;;;;;5011114;28;20212;-55
2023/08/29 10:38:18;;;;;;;0.53;0.53;;;13.50;99.90;;;;;;5011927;28;20199;-55
2023/08/29 10:40:46;;;;;;;0.50;0.50;;;13.50;99.90;;;;;;5011577;28;20215;-55
2023/08/29 10:43:18;;;;;;;0.40;0.40;;;13.40;99.90;;;;;;5011080;28;20239;-55
2023/08/29 10:45:49;;;;;;;0.80;0.43;;;13.50;99.90;;;;;;5011770;28;20226;-55
2023/08/29 10:48:19;;;;;;;0.50;0.37;;;13.50;99.90;;;;;;5011760;28;20230;-55
2023/08/29 10:50:49;;;;;;;1.63;0.50;;;13.50;99.90;;;;;;5009793;28;20210;-55
2023/08/29 10:53:20;;;;;;;0.40;0.40;;;13.50;99.90;;;;;;5003748;28;20249;-55
2023/08/29 10:56:02;;;;;;;0.50;0.50;;;13.50;99.90;;;;;;5011577;28;20681;-56
2023/08/29 10:58:35;;;;;;;0.70;0.70;;;13.50;99.90;;;;;;5011712;28;20302;-56
2023/08/29 11:01:04;;;;;;;0.30;0.30;;;13.50;99.90;;;;;;5010562;28;20293;-56
2023/08/29 11:03:48;;;;;;;0.43;0.43;;;13.70;99.90;;;;;;5010787;28;20207;-55
2023/08/29 11:06:17;;;;;;;0.40;0.40;;;13.80;99.90;;;;;;5010833;28;20211;-56
2023/08/29 11:08:45;;;;;;;0.50;0.40;;;13.70;99.90;;;;;;5009633;28;20222;-55
2023/08/29 11:11:19;;;;;;;0.97;0.30;;;13.70;99.90;;;;;;5011352;28;20234;-55
2023/08/29 11:13:57;;;;;;;0.43;0.43;;;13.80;99.90;;;;;;5001535;28;20279;-55
2023/08/29 11:16:24;;;;;;;1.23;0.40;;;13.70;99.90;;;;;;5018288;28;20248;-56
2023/08/29 11:19:06;;;;;;;0.57;0.40;;;13.80;99.90;;;;;;5031054;28;20201;-56
2023/08/29 11:21:34;;;;;;;0.30;0.30;;;13.80;99.90;;;;;;5028079;28;20233;-56
2023/08/29 11:24:03;;;;;;;0.83;0.20;;;13.70;99.90;;;;;;5010479;28;20199;-57
2023/08/29 11:26:34;;;;;;;0.10;0.10;;;13.70;99.90;;;;;;5015259;28;20293;-55
2023/08/29 11:29:01;;;;;;;0.30;0.30;;;13.80;99.90;;;;;;5015492;28;20310;-56
2023/08/29 11:31:30;;;;;;;0.23;0.23;;;13.90;99.90;;;;;;5015468;28;20227;-54
2023/08/29 11:33:57;;;;;;;0.30;0.30;;;14.00;99.90;;;;;;5014637;28;20207;-56
2023/08/29 11:36:31;;;;;;;0.30;0.30;;;13.90;99.90;;;;;;5015184;28;20203;-56
2023/08/29 11:38:59;;;;;;;0.20;0.20;;;14.00;99.90;;;;;;5013443;28;20222;-55
2023/08/29 11:41:28;;;;;;;0.47;0.47;;;14.00;99.90;;;;;;5014315;28;20218;-55
2023/08/29 11:43:56;;;;;;;0.20;0.20;;;14.00;99.90;;;;;;5014391;28;20211;-55
2023/08/29 11:46:24;;;;;;;0.20;0.20;;;14.10;99.90;;;;;;5014971;28;20207;-55
2023/08/29 11:48:50;;;;;;;0.10;0.10;;;14.10;99.90;;;;;;5014890;28;20254;-55
2023/08/29 11:51:18;;;;;;;0.30;0.30;;;14.10;99.90;;;;;;5014745;28;20222;-55
2023/08/29 11:53:51;;;;;;;0.30;0.30;;;14.10;99.90;;;;;;5014182;28;20233;-55
2023/08/29 11:56:20;;;;;;;0.27;0.27;;;14.10;99.90;;;;;;5013190;28;20611;-56
2023/08/29 11:58:49;;;;;;;1.63;0.27;;;14.10;99.90;;;;;;5014610;28;20731;-55
2023/08/29 12:01:16;;;;;;;0.20;0.20;;;14.10;99.90;;;;;;5013484;28;20274;-56
2023/08/29 12:03:44;;;;;;;0.20;0.20;;;14.10;99.90;;;;;;5014354;28;20203;-56
2023/08/29 12:06:12;;;;;;;0.20;0.20;;;14.10;99.90;;;;;;5014545;28;20306;-55
2023/08/29 12:08:40;;;;;;;0.20;0.20;;;14.20;99.90;;;;;;5011274;28;20693;-55
2023/08/29 12:11:09;;;;;;;0.63;0.30;;;14.30;99.90;;;;;;5006114;28;20309;-55
2023/08/29 12:13:37;;;;;;;0.77;0.33;;;14.20;99.90;;;;;;5012697;28;20265;-55
2023/08/29 12:16:13;;;;;;;0.40;0.40;;;14.20;99.90;;;;;;5014261;28;20621;-56
2023/08/29 12:18:40;;;;;;;0.30;0.30;;;14.40;99.90;;;;;;5005400;28;20200;-55
2023/08/29 12:21:16;;;;;;;2.30;0.60;;;14.50;99.90;;;;;;5006130;28;20716;-55
2023/08/29 12:23:43;;;;;;;0.27;0.27;;;14.60;99.90;;;;;;5013817;28;20202;-55
2023/08/29 12:26:11;;;;;;;0.53;0.30;;;14.60;99.90;;;;;;5013348;28;20239;-54
2023/08/29 12:28:40;;;;;;;0.20;0.20;;;14.60;99.90;;;;;;5005090;28;20223;-55
2023/08/29 12:31:08;;;;;;;0.30;0.20;;;14.50;99.90;;;;;;5014170;28;20321;-56
2023/08/29 12:33:35;;;;;;;0.20;0.20;;;14.40;99.90;;;;;;5013462;28;20203;-56
2023/08/29 12:36:02;;;;;;;0.70;0.37;;;14.30;99.90;;;;;;5013551;28;20211;-55
2023/08/29 12:38:30;;;;;;;1.20;0.30;;;14.40;99.90;;;;;;5013732;28;20670;-55
2023/08/29 12:40:57;;;;;;;0.40;0.40;;;14.30;99.90;;;;;;5014087;28;20250;-56
2023/08/29 12:43:24;;;;;;;0.50;0.50;;;14.30;99.90;;;;;;5011392;28;20199;-55
2023/08/29 12:45:52;;;;;;;1.43;0.50;;;14.30;99.90;;;;;;5013900;28;20245;-56
2023/08/29 12:48:20;;;;;;;0.50;0.50;;;14.40;99.90;;;;;;5013784;28;20634;-56
2023/08/29 12:50:48;;;;;;;0.37;0.37;;;14.50;99.90;;;;;;5013740;28;20230;-56
2023/08/29 12:53:18;;;;;;;0.50;0.50;;;14.60;99.90;;;;;;5012841;28;20207;-54